New Boston, New Hampshire
Current Conditions -  °F | °C
As of 2:53 AM on Sunday 26 Oct 2014 (Local Time) from KMHT Reporting Station
Overcast Overcast  
Wind Chill: 53°   Ceiling: 13000
Heat Index: 53°   Visibility: 10mi
Dew Point: 43°   Wind: 5mph
Humidity: 69%   Direction: 240°WSW
Pressure: 29.43"   Gusts: NA
Location:  42.98°N, 71.69°W
Report Text: KMHT 260653Z 24004KT 10SM OVC130 12/06 A2943 RMK AO2 SLP978 T01170061
Loading
Personal Weather Stations






























Interactive Weather Map
Tropical Storm Tracking
New forecast layout! Learn more

10-Day Weather Forecast

Advertisements
Track Severe Weather on mobile